Time;durP1;ratioP1;P1;durP2;ratioP2;P2;SDS_P1;SDS_P2;PMS_P1;PMS_P2;Temp;Humidity;BMP_temperature;BMP_pressure;BME280_temperature;BME280_humidity;BME280_pressure;Samples;Min_cycle;Max_cycle;Signal;HPM_P1;HPM_P2
2022/05/29 00:01:25;;;;;;;6.50;1.80;;;;;;;8.87;87.33;100727.73;105932;1281;73026;-85
2022/05/29 00:03:52;;;;;;;7.90;1.40;;;;;;;8.89;87.04;100718.73;106103;1281;62877;-84
2022/05/29 00:06:19;;;;;;;5.10;1.50;;;;;;;8.90;87.55;100716.37;106199;1279;59509;-84
2022/05/29 00:08:46;;;;;;;3.60;1.60;;;;;;;8.90;87.51;100713.16;105729;1281;61311;-85
2022/05/29 00:11:13;;;;;;;4.30;1.30;;;;;;;8.91;87.67;100714.14;105776;1281;72486;-84
2022/05/29 00:13:42;;;;;;;6.30;1.20;;;;;;;8.92;87.72;100713.98;106190;1280;74389;-84
2022/05/29 00:16:09;;;;;;;5.30;1.50;;;;;;;8.93;87.73;100714.73;105869;1281;63216;-84
2022/05/29 00:18:37;;;;;;;7.50;1.70;;;;;;;8.94;87.84;100709.45;105845;1280;59989;-85
2022/05/29 00:21:07;;;;;;;4.80;1.20;;;;;;;8.94;88.15;100712.35;106006;1279;75125;-85
2022/05/29 00:23:40;;;;;;;7.10;1.60;;;;;;;8.94;88.14;100714.25;105691;1281;71502;-84
2022/05/29 00:26:08;;;;;;;5.50;1.50;;;;;;;8.95;88.35;100706.60;105867;1279;74152;-85
2022/05/29 00:28:35;;;;;;;8.10;1.70;;;;;;;8.94;88.32;100707.56;106396;1281;62545;-83
2022/05/29 00:31:05;;;;;;;5.40;1.20;;;;;;;8.94;88.58;100701.73;107188;1281;60596;-84
2022/05/29 00:33:32;;;;;;;2.60;1.50;;;;;;;8.93;88.70;100703.13;106532;1281;74776;-85
2022/05/29 00:35:59;;;;;;;5.50;1.60;;;;;;;8.92;88.71;100693.66;106127;1279;72529;-85
2022/05/29 00:38:27;;;;;;;9.40;2.60;;;;;;;8.93;88.55;100691.88;105819;1280;60542;-85
2022/05/29 00:41:22;;;;;;;7.90;1.40;;;;;;;8.93;88.47;100689.33;105673;1281;62344;-87
2022/05/29 00:44:12;;;;;;;3.30;1.10;;;;;;;8.93;88.62;100688.86;105804;1281;61588;-85
2022/05/29 00:47:02;;;;;;;6.60;1.40;;;;;;;8.93;88.63;100685.52;105734;1280;76066;-86
2022/05/29 00:49:32;;;;;;;5.30;1.40;;;;;;;8.92;89.12;100685.99;105814;1279;71514;-85
2022/05/29 00:52:21;;;;;;;5.50;1.80;;;;;;;8.89;89.21;100687.21;105910;1280;71928;-85
2022/05/29 00:55:05;;;;;;;7.10;1.60;;;;;;;8.86;89.37;100680.59;105918;1281;61967;-84
2022/05/29 00:57:36;;;;;;;7.30;1.90;;;;;;;8.85;89.62;100679.48;105559;1281;61833;-85
2022/05/29 01:00:14;;;;;;;7.30;2.00;;;;;;;8.83;89.91;100685.52;105754;1281;75724;-84
2022/05/29 01:02:42;;;;;;;5.60;1.40;;;;;;;8.81;90.21;100682.98;105999;1281;72554;-86
2022/05/29 01:05:14;;;;;;;5.90;2.00;;;;;;;8.78;90.46;100682.54;105793;1281;73850;-85
2022/05/29 01:07:52;;;;;;;7.70;2.10;;;;;;;8.77;90.81;100679.29;106136;1279;61587;-84
2022/05/29 01:10:19;;;;;;;2.90;1.20;;;;;;;8.76;91.26;100678.16;105838;1280;61296;-84
2022/05/29 01:13:06;;;;;;;6.20;1.50;;;;;;;8.75;91.32;100676.45;105885;1280;76160;-83
2022/05/29 01:15:51;;;;;;;5.10;1.40;;;;;;;8.74;91.42;100675.86;105854;1281;72372;-85
2022/05/29 01:18:44;;;;;;;5.60;1.80;;;;;;;8.73;92.27;100668.81;105848;1280;73461;-85
2022/05/29 01:21:49;;;;;;;3.80;1.70;;;;;;;8.71;92.20;100667.41;106105;1281;62430;-85
2022/05/29 01:24:38;;;;;;;8.50;1.70;;;;;;;8.70;92.71;100668.75;105907;1281;61674;-84
2022/05/29 01:27:19;;;;;;;8.10;1.70;;;;;;;8.69;93.03;100663.05;105816;1280;75103;-85
2022/05/29 01:30:06;;;;;;;5.80;2.00;;;;;;;8.67;93.31;100664.96;105832;1281;71530;-84
2022/05/29 01:33:07;;;;;;;4.80;2.00;;;;;;;8.65;93.85;100662.91;105633;1282;73981;-85
2022/05/29 01:35:56;;;;;;;6.10;1.40;;;;;;;8.63;94.07;100662.11;105769;1280;62648;-84
2022/05/29 01:38:40;;;;;;;8.60;1.90;;;;;;;8.62;94.18;100654.80;105981;1280;61884;-85
2022/05/29 01:41:34;;;;;;;8.90;2.00;;;;;;;8.62;94.06;100655.57;105638;1281;75186;-85
2022/05/29 01:44:22;;;;;;;6.70;2.00;;;;;;;8.61;94.18;100656.82;105858;1281;71280;-84
2022/05/29 01:46:57;;;;;;;6.70;1.40;;;;;;;8.60;93.89;100655.90;105914;1280;73010;-85
2022/05/29 01:49:37;;;;;;;2.60;0.80;;;;;;;8.59;93.86;100650.05;105753;1281;62952;-84
2022/05/29 01:52:12;;;;;;;5.90;1.80;;;;;;;8.56;93.86;100647.47;106121;1280;61396;-84
2022/05/29 01:54:45;;;;;;;6.50;1.50;;;;;;;8.54;93.90;100640.81;105625;1282;76612;-84
2022/05/29 01:57:28;;;;;;;4.90;1.10;;;;;;;8.49;93.76;100640.41;105930;1280;74103;-84
2022/05/29 01:59:57;;;;;;;8.20;1.70;;;;;;;8.47;94.14;100638.19;105746;1281;73584;-84
2022/05/29 02:02:34;;;;;;;6.40;2.00;;;;;;;8.46;94.65;100640.11;105846;1281;62628;-84
2022/05/29 02:05:09;;;;;;;6.60;1.70;;;;;;;8.46;94.79;100641.50;105686;1281;61158;-84
2022/05/29 02:07:48;;;;;;;6.70;1.50;;;;;;;8.46;95.37;100637.13;105816;1280;74981;-85
2022/05/29 02:10:38;;;;;;;5.70;2.10;;;;;;;8.44;96.45;100632.77;106051;1280;71374;-84
2022/05/29 02:13:10;;;;;;;8.80;1.70;;;;;;;8.40;97.28;100630.63;106612;1281;73600;-84
2022/05/29 02:15:42;;;;;;;4.20;2.00;;;;;;;8.38;97.58;100624.00;106280;1280;61610;-83
2022/05/29 02:19:03;;;;;;;7.20;2.00;;;;;;;8.34;97.87;100624.49;106449;1269;161942;-86
2022/05/29 02:22:21;;;;;;;4.90;1.30;;;;;;;8.31;98.38;100622.17;106536;1279;75463;-86
2022/05/29 02:33:16;;;;;;;6.40;2.20;;;;;;;8.31;99.59;100608.73;105894;1281;61305;-84
2022/05/29 02:36:22;;;;;;;6.50;1.80;;;;;;;8.30;99.86;100607.54;105740;1280;74896;-84
2022/05/29 02:39:08;;;;;;;9.20;2.30;;;;;;;8.30;99.90;100610.05;105385;1282;70725;-84
2022/05/29 02:41:57;;;;;;;5.60;2.00;;;;;;;8.29;99.92;100609.22;105745;1281;73269;-84
2022/05/29 02:44:38;;;;;;;10.90;2.80;;;;;;;8.30;99.94;100608.10;105660;1281;61884;-85
2022/05/29 02:47:56;;;;;;;4.70;2.00;;;;;;;8.31;99.73;100607.79;106883;1281;61410;-84
2022/05/29 02:50:40;;;;;;;5.10;1.00;;;;;;;8.32;99.33;100606.45;105781;1281;76038;-89
2022/05/29 02:53:10;;;;;;;9.20;2.30;;;;;;;8.32;99.09;100605.96;106280;1267;71514;-84
2022/05/29 02:55:46;;;;;;;5.00;1.70;;;;;;;8.32;98.93;100606.77;105971;1270;72725;-83
2022/05/29 02:58:37;;;;;;;8.10;3.00;;;;;;;8.33;99.31;100605.65;105881;1281;64145;-84
2022/05/29 03:01:24;;;;;;;6.90;2.00;;;;;;;8.34;99.10;100604.88;106205;1281;61824;-85
2022/05/29 03:04:20;;;;;;;10.20;2.10;;;;;;;8.34;99.39;100602.16;105834;1281;74029;-84
2022/05/29 03:06:57;;;;;;;9.10;2.30;;;;;;;8.35;99.24;100605.23;105860;1281;71439;-84
2022/05/29 03:09:42;;;;;;;4.70;1.70;;;;;;;8.36;99.20;100597.57;105719;1281;73192;-85
2022/05/29 03:12:30;;;;;;;5.50;1.90;;;;;;;8.38;98.99;100598.63;105809;1281;61491;-85
2022/05/29 03:15:18;;;;;;;7.90;2.50;;;;;;;8.39;99.24;100597.80;105745;1281;61484;-84
2022/05/29 03:18:22;;;;;;;8.60;1.90;;;;;;;8.39;99.27;100595.85;105772;1281;76000;-84
2022/05/29 03:21:00;;;;;;;5.50;1.80;;;;;;;8.40;99.39;100590.13;105761;1280;71519;-85
2022/05/29 03:23:33;;;;;;;9.90;2.70;;;;;;;8.40;99.35;100589.42;105693;1281;72114;-85
2022/05/29 03:26:06;;;;;;;6.00;2.30;;;;;;;8.40;99.43;100590.29;105661;1279;61472;-84
2022/05/29 03:28:42;;;;;;;9.50;2.70;;;;;;;8.41;99.20;100587.73;105613;1281;61307;-83
2022/05/29 03:31:15;;;;;;;4.30;2.10;;;;;;;8.40;99.19;100591.85;105744;1281;76629;-86
2022/05/29 03:33:46;;;;;;;6.70;2.90;;;;;;;8.41;99.26;100590.57;106377;1281;70340;-84
2022/05/29 03:36:15;;;;;;;3.60;1.60;;;;;;;8.41;99.27;100588.76;105826;1281;72989;-84
2022/05/29 03:38:44;;;;;;;12.80;3.30;;;;;;;8.42;99.13;100585.85;105641;1281;61540;-85
2022/05/29 03:41:39;;;;;;;7.70;2.80;;;;;;;8.43;99.08;100586.97;106141;1281;61383;-84
2022/05/29 03:44:06;;;;;;;5.70;2.00;;;;;;;8.44;99.08;100583.92;105693;1280;75132;-85
2022/05/29 03:46:35;;;;;;;13.60;3.90;;;;;;;8.44;99.07;100582.98;105650;1281;71033;-84
2022/05/29 03:49:02;;;;;;;10.20;3.50;;;;;;;8.47;98.82;100583.61;105753;1281;73985;-84
2022/05/29 03:51:28;;;;;;;5.20;1.90;;;;;;;8.48;98.70;100582.55;105531;1281;61282;-83
2022/05/29 03:53:55;;;;;;;6.00;2.10;;;;;;;8.50;98.54;100583.58;105904;1281;62008;-85
2022/05/29 03:56:21;;;;;;;7.10;2.20;;;;;;;8.51;98.37;100580.80;105783;1281;76093;-84
2022/05/29 03:58:53;;;;;;;7.10;2.80;;;;;;;8.53;98.15;100578.83;105508;1284;70338;-86
2022/05/29 04:01:19;;;;;;;6.70;2.60;;;;;;;8.54;97.99;100578.91;105546;1281;72991;-84
2022/05/29 04:03:47;;;;;;;8.00;2.30;;;;;;;8.56;97.83;100576.11;106063;1281;61181;-83
2022/05/29 04:06:13;;;;;;;5.30;2.50;;;;;;;8.57;98.07;100570.52;105596;1281;61406;-84
2022/05/29 04:14:10;;;;;;;;;;;;;;;8.62;96.97;100568.97;105811;1281;73057;-83
2022/05/29 04:16:37;;;;;;;13.20;2.80;;;;;;;8.62;96.71;100570.85;105533;1281;61475;-83
2022/05/29 04:19:04;;;;;;;8.30;2.30;;;;;;;8.65;96.61;100566.54;105513;1281;61321;-84
2022/05/29 04:21:32;;;;;;;8.80;2.10;;;;;;;8.67;96.55;100565.60;105668;1280;74887;-87
2022/05/29 04:23:58;;;;;;;9.80;2.20;;;;;;;8.68;95.99;100563.83;105540;1281;72414;-84
2022/05/29 04:26:25;;;;;;;9.30;2.50;;;;;;;8.71;95.71;100559.85;105821;1281;59302;-84
2022/05/29 04:28:52;;;;;;;8.00;2.30;;;;;;;8.73;95.46;100564.02;105670;1281;61928;-83
2022/05/29 04:31:18;;;;;;;7.80;2.20;;;;;;;8.77;95.27;100563.98;105722;1281;61168;-83
2022/05/29 04:33:46;;;;;;;5.80;2.60;;;;;;;8.79;95.13;100566.72;105687;1281;74695;-84
2022/05/29 04:36:12;;;;;;;8.50;1.80;;;;;;;8.84;94.83;100564.66;105689;1281;61076;-84
2022/05/29 04:38:39;;;;;;;9.30;2.20;;;;;;;8.87;94.63;100562.15;105331;1281;73679;-83
2022/05/29 04:41:07;;;;;;;7.10;2.60;;;;;;;8.90;93.86;100563.11;105589;1281;62028;-84
2022/05/29 04:43:34;;;;;;;5.60;1.80;;;;;;;8.93;93.88;100561.28;105643;1280;61956;-83
2022/05/29 04:46:02;;;;;;;9.20;2.40;;;;;;;8.96;93.33;100563.50;105789;1281;76001;-84
2022/05/29 04:48:31;;;;;;;5.80;1.70;;;;;;;8.98;92.82;100558.86;105403;1281;72671;-84
2022/05/29 04:50:59;;;;;;;7.60;1.90;;;;;;;8.99;91.99;100563.36;105628;1281;62818;-84
2022/05/29 04:53:28;;;;;;;7.20;1.80;;;;;;;9.00;91.87;100561.70;105497;1281;61556;-85
2022/05/29 04:55:56;;;;;;;5.40;2.00;;;;;;;9.00;91.71;100561.30;105696;1281;61216;-85
2022/05/29 04:58:24;;;;;;;8.70;1.80;;;;;;;9.01;92.02;100556.31;105523;1281;75745;-83
2022/05/29 05:01:00;;;;;;;10.30;3.00;;;;;;;9.01;92.04;100552.35;105696;1281;72439;-83
2022/05/29 05:03:27;;;;;;;3.50;2.10;;;;;;;9.01;91.74;100563.46;105727;1281;74057;-86
2022/05/29 05:05:54;;;;;;;9.70;2.70;;;;;;;9.01;91.52;100562.23;105550;1281;62616;-84
2022/05/29 05:08:20;;;;;;;7.30;2.00;;;;;;;9.01;91.17;100564.25;105771;1281;61402;-84
2022/05/29 05:10:48;;;;;;;6.10;1.90;;;;;;;9.01;91.55;100563.48;106178;1281;75716;-84
2022/05/29 05:13:15;;;;;;;10.40;2.30;;;;;;;9.04;91.56;100558.09;106277;1281;71866;-83
2022/05/29 05:15:44;;;;;;;5.20;1.90;;;;;;;9.08;91.47;100560.57;106183;1281;73120;-84
2022/05/29 05:18:11;;;;;;;7.50;2.30;;;;;;;9.11;91.06;100562.08;105788;1281;61273;-85
2022/05/29 05:20:38;;;;;;;11.00;3.20;;;;;;;9.14;91.33;100556.19;105723;1281;61404;-84
2022/05/29 05:23:05;;;;;;;7.40;2.30;;;;;;;9.18;91.41;100552.91;105582;1281;74835;-84
2022/05/29 05:25:33;;;;;;;8.20;2.30;;;;;;;9.22;90.88;100550.94;105497;1281;69744;-84
2022/05/29 05:27:59;;;;;;;10.30;2.30;;;;;;;9.27;90.77;100544.05;106493;1281;75018;-84
2022/05/29 05:30:25;;;;;;;10.00;2.40;;;;;;;9.30;90.08;100552.48;105675;1281;61500;-84
2022/05/29 05:32:52;;;;;;;7.90;2.40;;;;;;;9.33;89.83;100554.12;105552;1281;61714;-84
2022/05/29 05:35:19;;;;;;;7.60;2.00;;;;;;;9.34;89.44;100554.67;105604;1281;76529;-84
2022/05/29 05:37:45;;;;;;;7.00;2.00;;;;;;;9.37;89.74;100563.58;105719;1281;61309;-84
2022/05/29 05:40:14;;;;;;;7.60;1.60;;;;;;;9.37;89.56;100558.37;105784;1280;61268;-84
2022/05/29 05:42:42;;;;;;;11.20;2.50;;;;;;;9.38;89.72;100560.66;105553;1281;64256;-83
2022/05/29 05:45:11;;;;;;;8.30;2.30;;;;;;;9.39;89.90;100562.08;105597;1281;61569;-83
2022/05/29 05:47:38;;;;;;;8.70;3.10;;;;;;;9.40;89.78;100560.59;105739;1281;75186;-84
2022/05/29 05:50:07;;;;;;;11.00;2.30;;;;;;;9.41;89.94;100559.84;105599;1280;72680;-83
2022/05/29 05:52:33;;;;;;;7.20;2.10;;;;;;;9.44;90.33;100554.86;105719;1280;74841;-84
2022/05/29 05:55:00;;;;;;;9.80;1.90;;;;;;;9.47;89.99;100556.83;105603;1281;61306;-84
2022/05/29 05:57:26;;;;;;;4.20;1.80;;;;;;;9.52;89.61;100556.14;105635;1281;59385;-84
2022/05/29 05:59:54;;;;;;;9.00;2.50;;;;;;;9.57;89.47;100557.65;105525;1281;74279;-85
2022/05/29 06:02:22;;;;;;;9.00;2.20;;;;;;;9.62;89.54;100561.29;105630;1281;61322;-84
2022/05/29 06:04:49;;;;;;;6.70;1.80;;;;;;;9.63;88.99;100560.17;105553;1281;74004;-84
2022/05/29 06:07:16;;;;;;;7.30;2.60;;;;;;;9.63;88.98;100563.84;105492;1281;62229;-84
2022/05/29 06:09:49;;;;;;;6.50;1.90;;;;;;;9.59;89.07;100568.50;105796;1281;60896;-84
2022/05/29 06:12:19;;;;;;;13.00;3.10;;;;;;;9.58;88.49;100571.86;105797;1281;76029;-84
2022/05/29 06:14:47;;;;;;;6.80;2.00;;;;;;;9.58;88.53;100559.63;105732;1281;72360;-84
2022/05/29 06:17:13;;;;;;;12.00;2.10;;;;;;;9.58;88.75;100564.27;107625;1279;72932;-84
2022/05/29 06:19:41;;;;;;;10.90;3.00;;;;;;;9.61;88.87;100565.27;105854;1281;61416;-83
2022/05/29 06:22:07;;;;;;;9.40;2.70;;;;;;;9.64;88.74;100563.60;105786;1280;61071;-84
2022/05/29 06:24:34;;;;;;;8.10;2.20;;;;;;;9.66;88.00;100565.83;105691;1280;76027;-84
2022/05/29 06:27:00;;;;;;;11.60;2.40;;;;;;;9.71;87.70;100570.93;105622;1281;61182;-84
2022/05/29 06:29:27;;;;;;;5.80;2.50;;;;;;;9.73;87.77;100567.08;105587;1281;61405;-85
2022/05/29 06:31:59;;;;;;;9.30;2.80;;;;;;;9.78;87.50;100566.73;105848;1280;63562;-85
2022/05/29 06:34:26;;;;;;;6.50;1.90;;;;;;;9.87;87.71;100565.74;105734;1281;61298;-84
2022/05/29 06:36:53;;;;;;;9.40;2.60;;;;;;;9.94;87.41;100566.88;105556;1281;76171;-83
2022/05/29 06:39:21;;;;;;;8.00;2.50;;;;;;;9.97;86.47;100559.38;105731;1280;61181;-84
2022/05/29 06:41:51;;;;;;;7.40;1.70;;;;;;;10.00;86.30;100557.73;105834;1281;74597;-84
2022/05/29 06:44:18;;;;;;;8.10;2.50;;;;;;;10.02;86.07;100560.95;105748;1280;62001;-84
2022/05/29 06:46:44;;;;;;;5.50;2.20;;;;;;;10.02;85.73;100564.39;105904;1280;61752;-84
2022/05/29 06:49:12;;;;;;;6.50;2.00;;;;;;;10.05;85.91;100562.11;105903;1280;76005;-84
2022/05/29 06:51:39;;;;;;;5.50;1.70;;;;;;;10.08;85.62;100559.59;105994;1281;72441;-84
2022/05/29 06:54:07;;;;;;;9.50;2.60;;;;;;;10.13;85.52;100565.60;105870;1280;74257;-84
2022/05/29 06:56:34;;;;;;;6.20;2.20;;;;;;;10.16;85.38;100562.97;105798;1281;61093;-84
2022/05/29 06:59:03;;;;;;;10.10;2.40;;;;;;;10.17;85.23;100558.63;105884;1280;63618;-84
2022/05/29 07:06:59;;;;;;;6.90;1.90;;;;;;;10.12;86.03;100558.70;105851;1281;72390;-84
2022/05/29 07:07:23;;;;;;;10.10;2.30;;;;;;;10.05;85.96;100559.80;105854;1281;73026;-84
2022/05/29 07:09:50;;;;;;;11.30;3.10;;;;;;;10.13;86.37;100558.24;105846;1280;59183;-87
2022/05/29 07:12:26;;;;;;;10.10;2.10;;;;;;;10.20;86.10;100557.94;105962;1281;61300;-85
2022/05/29 07:15:06;;;;;;;9.60;3.00;;;;;;;10.27;85.95;100557.48;106265;1280;76152;-86
2022/05/29 07:17:33;;;;;;;9.80;2.40;;;;;;;10.39;85.44;100555.86;105878;1280;71436;-89
2022/05/29 07:20:00;;;;;;;9.60;2.80;;;;;;;10.51;84.67;100554.73;105946;1281;72988;-85
2022/05/29 07:22:32;;;;;;;8.40;2.90;;;;;;;10.61;83.91;100555.23;106143;1281;62044;-86
2022/05/29 07:24:58;;;;;;;5.80;2.40;;;;;;;10.69;83.04;100558.70;106158;1281;61131;-84
2022/05/29 07:27:25;;;;;;;9.30;2.20;;;;;;;10.74;82.90;100553.02;105919;1280;74944;-85
2022/05/29 07:29:53;;;;;;;9.10;2.40;;;;;;;10.82;82.63;100555.98;106213;1279;71376;-88
2022/05/29 07:32:21;;;;;;;6.40;1.90;;;;;;;10.86;81.90;100554.61;106620;1281;73291;-86
2022/05/29 07:34:50;;;;;;;7.50;2.20;;;;;;;10.86;80.58;100558.36;106654;1280;62030;-86
2022/05/29 07:37:18;;;;;;;4.20;1.30;;;;;;;10.92;80.51;100554.41;106546;1280;61231;-86
2022/05/29 07:39:49;;;;;;;8.70;2.10;;;;;;;11.00;80.57;100548.46;106498;1280;74945;-87
2022/05/29 07:45:01;;;;;;;8.00;2.40;;;;;;;11.30;80.14;100548.11;106646;1281;72687;-85
2022/05/29 07:47:43;;;;;;;6.40;1.40;;;;;;;11.41;79.50;100546.59;107202;1279;61764;-85
2022/05/29 07:50:16;;;;;;;6.90;1.50;;;;;;;11.56;78.65;100544.86;106658;1280;60603;-85
2022/05/29 07:52:44;;;;;;;6.30;1.60;;;;;;;11.66;77.77;100545.77;107049;1280;74977;-85
2022/05/29 07:55:11;;;;;;;7.80;2.10;;;;;;;11.67;76.79;100546.14;106950;1269;72079;-85
2022/05/29 07:57:38;;;;;;;3.00;1.30;;;;;;;11.73;76.63;100542.48;105911;1281;72174;-85
2022/05/29 08:00:08;;;;;;;4.60;1.50;;;;;;;11.76;77.12;100539.62;106006;1280;62043;-85
2022/05/29 08:02:35;;;;;;;4.50;1.70;;;;;;;11.86;77.03;100545.71;105743;1281;60570;-85
2022/05/29 08:05:06;;;;;;;8.40;1.90;;;;;;;11.91;76.32;100544.63;106179;1281;74907;-85
2022/05/29 08:07:36;;;;;;;3.70;2.00;;;;;;;12.02;76.28;100538.07;106004;1280;72751;-86
2022/05/29 08:10:06;;;;;;;6.50;1.40;;;;;;;12.19;75.95;100534.77;106241;1279;72790;-86
2022/05/29 08:12:33;;;;;;;5.70;1.60;;;;;;;12.28;74.28;100535.63;106168;1280;63772;-85
2022/05/29 08:15:02;;;;;;;5.60;1.80;;;;;;;12.27;72.89;100538.56;106441;1267;61237;-82
2022/05/29 08:17:29;;;;;;;4.50;1.10;;;;;;;12.25;72.88;100539.12;105899;1281;75059;-84
2022/05/29 08:19:56;;;;;;;3.20;1.30;;;;;;;12.31;72.87;100540.04;105671;1281;72672;-85
2022/05/29 08:22:27;;;;;;;3.90;1.10;;;;;;;12.32;73.05;100537.59;105670;1281;72282;-84
2022/05/29 08:30:54;;;;;;;4.90;1.00;;;;;;;12.18;75.11;100542.48;106348;1278;74976;-86
2022/05/29 08:33:27;;;;;;;12.40;3.40;;;;;;;12.08;75.50;100539.27;106198;1279;71404;-86
2022/05/29 08:36:00;;;;;;;6.20;1.70;;;;;;;11.93;76.34;100541.29;106258;1278;73061;-85
2022/05/29 08:38:28;;;;;;;5.90;1.70;;;;;;;11.90;77.91;100548.63;106456;1279;61603;-85
2022/05/29 08:41:09;;;;;;;3.50;1.30;;;;;;;11.77;78.35;100552.92;106911;1279;61245;-84
2022/05/29 08:44:08;;;;;;;5.40;1.50;;;;;;;11.55;81.13;100551.14;107238;1278;75873;-85
2022/05/29 08:46:49;;;;;;;4.60;1.80;;;;;;;11.37;83.66;100551.73;106312;1279;71432;-86
2022/05/29 08:49:20;;;;;;;4.90;1.60;;;;;;;11.24;85.05;100547.62;106321;1279;73968;-84
2022/05/29 08:52:13;;;;;;;7.40;1.70;;;;;;;11.15;84.37;100546.71;105857;1279;61281;-85
2022/05/29 08:55:11;;;;;;;7.20;2.30;;;;;;;11.16;85.13;100547.50;106039;1279;61720;-84
2022/05/29 08:57:57;;;;;;;5.30;2.00;;;;;;;11.21;85.60;100543.74;106009;1279;76071;-86
2022/05/29 09:00:46;;;;;;;7.10;1.60;;;;;;;11.35;85.43;100541.77;106098;1279;71699;-87
2022/05/29 09:03:51;;;;;;;5.10;1.70;;;;;;;11.43;84.77;100542.48;105699;1279;72983;-88
2022/05/29 09:06:41;;;;;;;4.50;1.70;;;;;;;11.43;84.63;100541.63;105603;1279;64332;-88
2022/05/29 09:09:34;;;;;;;6.20;1.50;;;;;;;11.38;85.13;100544.20;105624;1279;61614;-84
2022/05/29 09:12:46;;;;;;;4.60;2.30;;;;;;;11.25;86.03;100547.50;105744;1279;75679;-85
2022/05/29 09:15:43;;;;;;;6.20;1.70;;;;;;;11.10;86.55;100547.50;104867;1287;71516;-84
2022/05/29 09:18:27;;;;;;;7.20;1.70;;;;;;;11.02;86.92;100542.84;105334;1287;73424;-83
2022/05/29 09:21:05;;;;;;;6.80;1.60;;;;;;;10.98;88.00;100544.27;105776;1281;63126;-84
2022/05/29 09:23:41;;;;;;;2.90;1.50;;;;;;;10.99;87.07;100542.83;105921;1281;61297;-84
2022/05/29 09:26:14;;;;;;;5.40;1.60;;;;;;;11.09;87.63;100541.06;106042;1281;75165;-86
2022/05/29 09:28:42;;;;;;;7.70;1.70;;;;;;;11.22;86.55;100543.10;105889;1281;71412;-86
2022/05/29 09:31:25;;;;;;;8.20;1.60;;;;;;;11.35;85.41;100542.26;105834;1281;73056;-85
2022/05/29 09:33:54;;;;;;;8.60;2.00;;;;;;;11.53;85.55;100541.91;106371;1281;726188;-85
2022/05/29 09:36:51;;;;;;;5.30;1.70;;;;;;;11.67;84.99;100539.64;105902;1281;61302;-85
2022/05/29 09:39:28;;;;;;;8.10;2.40;;;;;;;11.80;83.32;100540.52;105671;1281;74714;-84
2022/05/29 09:42:20;;;;;;;5.10;1.80;;;;;;;11.86;83.13;100527.57;105640;1281;72430;-85
2022/05/29 09:45:56;;;;;;;10.70;2.70;;;;;;;11.92;82.47;100527.58;105458;1281;75764;-84
2022/05/29 09:51:31;;;;;;;;;;;;;;;11.87;82.73;100526.44;105735;1281;61288;-84
2022/05/29 09:54:03;;;;;;;5.00;2.40;;;;;;;11.71;84.41;100525.46;105506;1281;75004;-82
2022/05/29 09:56:34;;;;;;;4.90;1.90;;;;;;;11.61;85.61;100525.49;106174;1280;72579;-83
2022/05/29 09:59:16;;;;;;;3.20;1.50;;;;;;;11.52;85.10;100527.32;105618;1281;73016;-83
2022/05/29 10:01:49;;;;;;;3.70;1.30;;;;;;;11.43;85.13;100527.48;105587;1281;61972;-84
2022/05/29 10:04:37;;;;;;;2.90;1.40;;;;;;;11.36;84.99;100531.35;105696;1281;61153;-83
2022/05/29 10:07:28;;;;;;;4.10;1.20;;;;;;;11.34;85.38;100529.45;106526;1281;75050;-84
2022/05/29 10:10:03;;;;;;;3.90;1.40;;;;;;;11.39;85.29;100525.27;105989;1283;71740;-84
2022/05/29 10:13:02;;;;;;;4.70;1.30;;;;;;;11.54;86.08;100526.52;105994;1281;73030;-84
2022/05/29 10:18:34;;;;;;;3.10;1.00;;;;;;;11.50;84.05;100527.00;105831;1281;61134;-83
2022/05/29 10:21:20;;;;;;;3.60;1.40;;;;;;;11.38;85.18;100535.67;106119;1281;75044;-83
2022/05/29 10:23:53;;;;;;;3.30;0.90;;;;;;;11.05;87.06;100544.73;107449;1281;72488;-83
2022/05/29 10:26:29;;;;;;;2.70;0.90;;;;;;;10.80;88.58;100538.19;105791;1281;72994;-81
2022/05/29 10:28:58;;;;;;;1.50;0.80;;;;;;;10.70;89.15;100537.44;105588;1281;61440;-82
2022/05/29 10:31:32;;;;;;;2.60;1.00;;;;;;;10.73;89.94;100532.84;105416;1284;61592;-83
2022/05/29 10:34:12;;;;;;;2.30;0.80;;;;;;;10.91;90.65;100534.22;105613;1281;74706;-82
2022/05/29 10:36:45;;;;;;;1.50;0.70;;;;;;;11.15;89.90;100529.23;105641;1281;72415;-83
2022/05/29 10:39:20;;;;;;;3.20;1.30;;;;;;;11.45;89.71;100529.67;105417;1281;74012;-82
2022/05/29 10:41:54;;;;;;;2.80;1.00;;;;;;;11.81;88.51;100528.19;105511;1281;62048;-82
2022/05/29 10:44:47;;;;;;;1.20;0.70;;;;;;;12.05;88.66;100521.00;105601;1281;62233;-82
2022/05/29 10:47:25;;;;;;;2.00;0.70;;;;;;;12.25;87.20;100519.31;105764;1281;74305;-82
2022/05/29 10:50:05;;;;;;;1.30;0.60;;;;;;;12.37;85.21;100523.72;105718;1280;69418;-83
2022/05/29 10:53:05;;;;;;;1.60;0.50;;;;;;;12.51;81.43;100520.25;105747;1281;72912;-83
2022/05/29 10:56:12;;;;;;;3.10;0.80;;;;;;;12.68;81.20;100521.89;105552;1281;61278;-83
2022/05/29 10:58:51;;;;;;;4.60;1.10;;;;;;;12.74;80.76;100524.44;105511;1281;61545;-83
2022/05/29 11:04:55;;;;;;;2.90;0.80;;;;;;;12.61;81.88;100510.35;105392;1281;72248;-83
2022/05/29 11:07:49;;;;;;;4.00;1.10;;;;;;;12.71;82.45;100507.87;105452;1281;72811;-84
2022/05/29 11:10:56;;;;;;;6.20;1.20;;;;;;;12.89;80.60;100510.74;105367;1281;63660;-83
2022/05/29 11:14:09;;;;;;;2.90;1.10;;;;;;;13.12;77.89;100503.59;105630;1281;61235;-83
2022/05/29 11:17:00;;;;;;;6.50;1.60;;;;;;;13.45;77.43;100498.45;105779;1281;75937;-84
2022/05/29 11:19:56;;;;;;;3.00;1.10;;;;;;;13.95;76.29;100497.31;105495;1281;71814;-84
2022/05/29 11:22:32;;;;;;;3.90;1.00;;;;;;;14.21;72.40;100493.85;105693;1281;72733;-84
2022/05/29 11:25:30;;;;;;;2.00;1.10;;;;;;;14.33;71.10;100493.71;105875;1281;62275;-84
2022/05/29 11:28:23;;;;;;;3.40;0.90;;;;;;;14.53;70.06;100488.95;105514;1281;61281;-83
2022/05/29 11:31:30;;;;;;;3.10;1.20;;;;;;;14.41;69.61;100484.27;105022;1281;76015;-83
2022/05/29 11:34:37;;;;;;;1.90;0.80;;;;;;;14.39;70.23;100482.25;105235;1281;72232;-83
2022/05/29 11:37:16;;;;;;;2.80;0.90;;;;;;;14.25;69.76;100485.29;105849;1281;74200;-83
2022/05/29 11:40:02;;;;;;;4.30;1.00;;;;;;;14.25;71.57;100482.98;105741;1281;62162;-84
2022/05/29 11:42:35;;;;;;;2.00;1.00;;;;;;;14.13;71.89;100482.06;105751;1281;61417;-83
2022/05/29 11:51:06;;;;;;;2.60;1.00;;;;;;;14.09;73.24;100477.96;105735;1281;75037;-83
2022/05/29 11:51:20;;;;;;;4.70;1.20;;;;;;;14.22;71.78;100480.72;105569;1281;73867;-83
2022/05/29 11:54:10;;;;;;;5.50;1.90;;;;;;;14.41;70.38;100481.79;105406;1279;62291;-84
2022/05/29 11:57:06;;;;;;;2.70;1.30;;;;;;;14.55;70.18;100471.92;106225;1280;61707;-84
2022/05/29 12:00:10;;;;;;;3.20;1.30;;;;;;;14.27;69.96;100480.52;105333;1281;76049;-85
2022/05/29 12:03:19;;;;;;;1.60;0.60;;;;;;;13.60;70.74;100487.98;105241;1281;70715;-83
2022/05/29 12:06:20;;;;;;;2.80;0.70;;;;;;;12.64;73.59;100494.59;105223;1281;74392;-82
2022/05/29 12:09:00;;;;;;;2.50;0.70;;;;;;;11.96;78.43;100484.38;105703;1281;61320;-81
2022/05/29 12:11:37;;;;;;;3.10;1.20;;;;;;;11.58;81.16;100489.91;106009;1280;61278;-82
2022/05/29 12:14:19;;;;;;;5.00;1.50;;;;;;;11.31;83.36;100481.45;105741;1280;75733;-82
2022/05/29 12:16:52;;;;;;;3.40;1.10;;;;;;;11.19;85.41;100478.64;105793;1281;71459;-83
2022/05/29 12:19:31;;;;;;;3.30;1.30;;;;;;;11.14;87.63;100476.37;105349;1281;72899;-82
2022/05/29 12:22:08;;;;;;;3.10;1.10;;;;;;;11.18;89.26;100471.76;105670;1280;62754;-82
2022/05/29 12:24:43;;;;;;;3.90;1.00;;;;;;;11.20;89.56;100471.06;105920;1281;61228;-82
2022/05/29 12:27:19;;;;;;;1.80;1.10;;;;;;;11.29;90.14;100467.73;105529;1281;74719;-82
2022/05/29 12:44:23;;;;;;;2.40;1.20;;;;;;;11.38;92.66;100458.66;105781;1280;76104;-83
2022/05/29 12:47:14;;;;;;;4.20;1.70;;;;;;;11.43;91.62;100456.96;106156;1281;74029;-81
2022/05/29 12:50:15;;;;;;;3.80;1.40;;;;;;;11.63;91.46;100451.58;106332;1281;73690;-81
2022/05/29 12:53:14;;;;;;;3.60;2.00;;;;;;;11.95;90.04;100448.04;106017;1279;64013;-82
2022/05/29 12:56:05;;;;;;;3.70;1.40;;;;;;;12.36;87.89;100448.73;106194;1280;61207;-82
2022/05/29 12:59:01;;;;;;;3.20;1.20;;;;;;;12.81;84.84;100442.70;106029;1280;74784;-81
2022/05/29 13:01:55;;;;;;;6.20;1.30;;;;;;;13.19;81.88;100442.94;106015;1279;72571;-82